sensor_id;sensor_type;location;lat;lon;timestamp;P1;durP1;ratioP1;P2;durP2;ratioP2
57828;SDS011;43657;52.698;6.314;2023-05-07T00:02:05;51.67;;;47.13;;
57828;SDS011;43657;52.698;6.314;2023-05-07T00:04:32;51.42;;;46.55;;
57828;SDS011;43657;52.698;6.314;2023-05-07T00:07:02;53.22;;;48.30;;
57828;SDS011;43657;52.698;6.314;2023-05-07T00:09:28;51.60;;;46.88;;
57828;SDS011;43657;52.698;6.314;2023-05-07T00:11:53;51.97;;;47.25;;
57828;SDS011;43657;52.698;6.314;2023-05-07T00:14:19;57.15;;;51.85;;
57828;SDS011;43657;52.698;6.314;2023-05-07T00:16:45;55.63;;;50.67;;
57828;SDS011;43657;52.698;6.314;2023-05-07T00:19:11;55.22;;;50.13;;
57828;SDS011;43657;52.698;6.314;2023-05-07T00:21:39;56.10;;;51.00;;
57828;SDS011;43657;52.698;6.314;2023-05-07T00:24:06;55.65;;;50.58;;
57828;SDS011;43657;52.698;6.314;2023-05-07T00:26:31;58.63;;;52.90;;
57828;SDS011;43657;52.698;6.314;2023-05-07T00:28:57;59.17;;;53.42;;
57828;SDS011;43657;52.698;6.314;2023-05-07T00:31:23;69.55;;;62.00;;
57828;SDS011;43657;52.698;6.314;2023-05-07T00:33:48;64.78;;;57.95;;
57828;SDS011;43657;52.698;6.314;2023-05-07T00:36:14;59.72;;;53.90;;
57828;SDS011;43657;52.698;6.314;2023-05-07T00:38:40;58.58;;;52.95;;
57828;SDS011;43657;52.698;6.314;2023-05-07T00:41:05;58.58;;;53.05;;
57828;SDS011;43657;52.698;6.314;2023-05-07T00:43:31;58.65;;;53.17;;
57828;SDS011;43657;52.698;6.314;2023-05-07T00:45:57;57.95;;;52.75;;
57828;SDS011;43657;52.698;6.314;2023-05-07T00:48:23;57.03;;;51.63;;
57828;SDS011;43657;52.698;6.314;2023-05-07T00:50:50;58.00;;;52.60;;
57828;SDS011;43657;52.698;6.314;2023-05-07T00:53:16;59.83;;;54.20;;
57828;SDS011;43657;52.698;6.314;2023-05-07T00:55:41;60.15;;;54.30;;
57828;SDS011;43657;52.698;6.314;2023-05-07T00:58:07;58.67;;;53.05;;
57828;SDS011;43657;52.698;6.314;2023-05-07T01:00:33;59.47;;;53.65;;
57828;SDS011;43657;52.698;6.314;2023-05-07T01:02:59;59.47;;;54.03;;
57828;SDS011;43657;52.698;6.314;2023-05-07T01:05:25;57.85;;;52.50;;
57828;SDS011;43657;52.698;6.314;2023-05-07T01:07:55;58.25;;;52.95;;
57828;SDS011;43657;52.698;6.314;2023-05-07T01:10:22;59.47;;;53.78;;
57828;SDS011;43657;52.698;6.314;2023-05-07T01:12:48;60.42;;;54.70;;
57828;SDS011;43657;52.698;6.314;2023-05-07T01:15:15;56.53;;;51.33;;
57828;SDS011;43657;52.698;6.314;2023-05-07T01:17:42;56.63;;;51.28;;
57828;SDS011;43657;52.698;6.314;2023-05-07T01:20:08;54.90;;;49.90;;
57828;SDS011;43657;52.698;6.314;2023-05-07T01:22:39;51.42;;;46.85;;
57828;SDS011;43657;52.698;6.314;2023-05-07T01:25:05;49.45;;;44.95;;
57828;SDS011;43657;52.698;6.314;2023-05-07T01:27:33;49.50;;;44.90;;
57828;SDS011;43657;52.698;6.314;2023-05-07T01:30:00;48.53;;;43.92;;
57828;SDS011;43657;52.698;6.314;2023-05-07T01:32:40;45.60;;;41.40;;
57828;SDS011;43657;52.698;6.314;2023-05-07T01:35:29;45.97;;;41.78;;
57828;SDS011;43657;52.698;6.314;2023-05-07T01:38:01;47.40;;;42.90;;
57828;SDS011;43657;52.698;6.314;2023-05-07T01:40:29;42.60;;;38.63;;
57828;SDS011;43657;52.698;6.314;2023-05-07T01:42:55;39.83;;;36.05;;
57828;SDS011;43657;52.698;6.314;2023-05-07T01:45:21;39.97;;;36.35;;
57828;SDS011;43657;52.698;6.314;2023-05-07T01:47:47;39.33;;;35.92;;
57828;SDS011;43657;52.698;6.314;2023-05-07T01:50:14;39.08;;;35.75;;
57828;SDS011;43657;52.698;6.314;2023-05-07T01:52:42;38.33;;;34.50;;
57828;SDS011;43657;52.698;6.314;2023-05-07T01:55:08;35.45;;;32.35;;
57828;SDS011;43657;52.698;6.314;2023-05-07T01:57:34;33.78;;;30.90;;
57828;SDS011;43657;52.698;6.314;2023-05-07T02:00:02;36.10;;;32.88;;
57828;SDS011;43657;52.698;6.314;2023-05-07T02:02:31;34.53;;;31.38;;
57828;SDS011;43657;52.698;6.314;2023-05-07T02:04:57;33.33;;;30.58;;
57828;SDS011;43657;52.698;6.314;2023-05-07T02:07:22;34.40;;;31.35;;
57828;SDS011;43657;52.698;6.314;2023-05-07T02:09:48;32.47;;;29.48;;
57828;SDS011;43657;52.698;6.314;2023-05-07T02:12:13;35.10;;;31.80;;
57828;SDS011;43657;52.698;6.314;2023-05-07T02:14:39;33.45;;;30.45;;
57828;SDS011;43657;52.698;6.314;2023-05-07T02:17:05;35.55;;;32.55;;
57828;SDS011;43657;52.698;6.314;2023-05-07T02:19:30;34.90;;;31.80;;
57828;SDS011;43657;52.698;6.314;2023-05-07T02:21:56;34.55;;;31.50;;
57828;SDS011;43657;52.698;6.314;2023-05-07T02:24:22;36.67;;;33.47;;
57828;SDS011;43657;52.698;6.314;2023-05-07T02:26:47;37.58;;;34.33;;
57828;SDS011;43657;52.698;6.314;2023-05-07T02:29:13;37.83;;;34.40;;
57828;SDS011;43657;52.698;6.314;2023-05-07T02:31:39;39.50;;;36.00;;
57828;SDS011;43657;52.698;6.314;2023-05-07T02:34:04;38.30;;;34.90;;
57828;SDS011;43657;52.698;6.314;2023-05-07T02:36:30;40.80;;;37.30;;
57828;SDS011;43657;52.698;6.314;2023-05-07T02:38:56;39.42;;;35.90;;
57828;SDS011;43657;52.698;6.314;2023-05-07T02:41:21;39.67;;;36.17;;
57828;SDS011;43657;52.698;6.314;2023-05-07T02:43:47;39.00;;;35.47;;
57828;SDS011;43657;52.698;6.314;2023-05-07T02:46:13;40.80;;;37.08;;
57828;SDS011;43657;52.698;6.314;2023-05-07T02:48:41;41.15;;;37.45;;
57828;SDS011;43657;52.698;6.314;2023-05-07T02:51:07;40.85;;;37.25;;
57828;SDS011;43657;52.698;6.314;2023-05-07T02:53:32;41.65;;;37.95;;
57828;SDS011;43657;52.698;6.314;2023-05-07T02:55:59;39.65;;;36.25;;
57828;SDS011;43657;52.698;6.314;2023-05-07T02:58:26;43.53;;;39.78;;
57828;SDS011;43657;52.698;6.314;2023-05-07T03:00:52;43.38;;;39.55;;
57828;SDS011;43657;52.698;6.314;2023-05-07T03:03:19;42.75;;;39.10;;
57828;SDS011;43657;52.698;6.314;2023-05-07T03:05:45;43.25;;;39.42;;
57828;SDS011;43657;52.698;6.314;2023-05-07T03:08:11;44.70;;;40.60;;
57828;SDS011;43657;52.698;6.314;2023-05-07T03:10:37;44.33;;;40.42;;
57828;SDS011;43657;52.698;6.314;2023-05-07T03:13:03;48.78;;;44.30;;
57828;SDS011;43657;52.698;6.314;2023-05-07T03:15:29;44.88;;;40.78;;
57828;SDS011;43657;52.698;6.314;2023-05-07T03:17:55;44.20;;;40.35;;
57828;SDS011;43657;52.698;6.314;2023-05-07T03:20:21;43.88;;;39.95;;
57828;SDS011;43657;52.698;6.314;2023-05-07T03:22:47;43.80;;;39.60;;
57828;SDS011;43657;52.698;6.314;2023-05-07T03:25:13;42.15;;;38.35;;
57828;SDS011;43657;52.698;6.314;2023-05-07T03:27:40;49.53;;;44.95;;
57828;SDS011;43657;52.698;6.314;2023-05-07T03:30:09;43.67;;;39.83;;
57828;SDS011;43657;52.698;6.314;2023-05-07T03:32:35;45.70;;;41.67;;
57828;SDS011;43657;52.698;6.314;2023-05-07T03:35:01;45.45;;;41.45;;
57828;SDS011;43657;52.698;6.314;2023-05-07T03:37:27;48.08;;;43.75;;
57828;SDS011;43657;52.698;6.314;2023-05-07T03:39:53;46.88;;;42.65;;
57828;SDS011;43657;52.698;6.314;2023-05-07T03:42:18;45.92;;;41.72;;
57828;SDS011;43657;52.698;6.314;2023-05-07T03:44:44;46.72;;;42.38;;
57828;SDS011;43657;52.698;6.314;2023-05-07T03:47:10;46.95;;;42.55;;
57828;SDS011;43657;52.698;6.314;2023-05-07T03:49:39;47.33;;;43.20;;
57828;SDS011;43657;52.698;6.314;2023-05-07T03:52:05;47.47;;;43.28;;
57828;SDS011;43657;52.698;6.314;2023-05-07T03:54:31;47.33;;;43.03;;
57828;SDS011;43657;52.698;6.314;2023-05-07T03:56:59;46.95;;;42.72;;
57828;SDS011;43657;52.698;6.314;2023-05-07T03:59:30;47.35;;;42.95;;
57828;SDS011;43657;52.698;6.314;2023-05-07T04:01:56;48.40;;;43.88;;
57828;SDS011;43657;52.698;6.314;2023-05-07T04:04:21;47.78;;;43.10;;
57828;SDS011;43657;52.698;6.314;2023-05-07T04:06:47;50.38;;;45.80;;
57828;SDS011;43657;52.698;6.314;2023-05-07T04:09:13;50.25;;;45.65;;
57828;SDS011;43657;52.698;6.314;2023-05-07T04:11:39;49.88;;;44.97;;
57828;SDS011;43657;52.698;6.314;2023-05-07T04:14:07;56.00;;;50.63;;
57828;SDS011;43657;52.698;6.314;2023-05-07T04:16:34;52.75;;;47.45;;
57828;SDS011;43657;52.698;6.314;2023-05-07T04:19:00;51.47;;;46.60;;
57828;SDS011;43657;52.698;6.314;2023-05-07T04:21:25;53.42;;;48.42;;
57828;SDS011;43657;52.698;6.314;2023-05-07T04:23:51;54.20;;;49.00;;
57828;SDS011;43657;52.698;6.314;2023-05-07T04:26:17;53.22;;;48.03;;
57828;SDS011;43657;52.698;6.314;2023-05-07T04:28:43;55.08;;;49.83;;
57828;SDS011;43657;52.698;6.314;2023-05-07T04:31:09;54.30;;;49.08;;
57828;SDS011;43657;52.698;6.314;2023-05-07T04:33:35;55.53;;;50.25;;
57828;SDS011;43657;52.698;6.314;2023-05-07T04:36:03;55.00;;;49.80;;
57828;SDS011;43657;52.698;6.314;2023-05-07T04:38:31;54.92;;;49.55;;
57828;SDS011;43657;52.698;6.314;2023-05-07T04:41:02;55.08;;;49.78;;
57828;SDS011;43657;52.698;6.314;2023-05-07T04:43:29;57.20;;;51.90;;
57828;SDS011;43657;52.698;6.314;2023-05-07T04:45:54;55.80;;;50.55;;
57828;SDS011;43657;52.698;6.314;2023-05-07T04:48:20;56.63;;;51.40;;
57828;SDS011;43657;52.698;6.314;2023-05-07T04:50:49;56.25;;;50.88;;
57828;SDS011;43657;52.698;6.314;2023-05-07T04:53:15;58.83;;;53.22;;
57828;SDS011;43657;52.698;6.314;2023-05-07T04:55:42;57.80;;;52.53;;
57828;SDS011;43657;52.698;6.314;2023-05-07T04:58:11;56.53;;;51.17;;
57828;SDS011;43657;52.698;6.314;2023-05-07T05:00:42;58.05;;;52.60;;
57828;SDS011;43657;52.698;6.314;2023-05-07T05:03:10;58.00;;;52.50;;
57828;SDS011;43657;52.698;6.314;2023-05-07T05:05:36;57.63;;;52.17;;
57828;SDS011;43657;52.698;6.314;2023-05-07T05:08:01;59.78;;;53.97;;
57828;SDS011;43657;52.698;6.314;2023-05-07T05:10:27;61.90;;;55.92;;
57828;SDS011;43657;52.698;6.314;2023-05-07T05:12:53;58.00;;;52.60;;
57828;SDS011;43657;52.698;6.314;2023-05-07T05:15:19;57.42;;;52.00;;
57828;SDS011;43657;52.698;6.314;2023-05-07T05:17:45;58.78;;;53.05;;
57828;SDS011;43657;52.698;6.314;2023-05-07T05:20:10;56.15;;;50.83;;
57828;SDS011;43657;52.698;6.314;2023-05-07T05:22:39;58.00;;;52.47;;
57828;SDS011;43657;52.698;6.314;2023-05-07T05:25:06;56.75;;;51.25;;
57828;SDS011;43657;52.698;6.314;2023-05-07T05:27:32;57.67;;;52.17;;
57828;SDS011;43657;52.698;6.314;2023-05-07T05:29:58;60.95;;;54.90;;
57828;SDS011;43657;52.698;6.314;2023-05-07T05:32:28;55.13;;;49.83;;
57828;SDS011;43657;52.698;6.314;2023-05-07T05:34:59;56.95;;;51.60;;
57828;SDS011;43657;52.698;6.314;2023-05-07T05:37:25;56.15;;;50.83;;
57828;SDS011;43657;52.698;6.314;2023-05-07T05:39:52;55.65;;;50.45;;
57828;SDS011;43657;52.698;6.314;2023-05-07T05:42:19;56.08;;;50.92;;
57828;SDS011;43657;52.698;6.314;2023-05-07T05:44:45;55.55;;;50.45;;
57828;SDS011;43657;52.698;6.314;2023-05-07T05:47:11;54.03;;;49.20;;
57828;SDS011;43657;52.698;6.314;2023-05-07T05:49:39;53.60;;;48.65;;
57828;SDS011;43657;52.698;6.314;2023-05-07T05:52:05;55.92;;;50.75;;
57828;SDS011;43657;52.698;6.314;2023-05-07T05:54:31;54.67;;;49.58;;
57828;SDS011;43657;52.698;6.314;2023-05-07T05:56:56;54.03;;;49.20;;
57828;SDS011;43657;52.698;6.314;2023-05-07T05:59:31;54.05;;;49.05;;
57828;SDS011;43657;52.698;6.314;2023-05-07T06:01:57;53.72;;;48.92;;
57828;SDS011;43657;52.698;6.314;2023-05-07T06:04:23;54.22;;;49.38;;
57828;SDS011;43657;52.698;6.314;2023-05-07T06:06:50;49.38;;;44.88;;
57828;SDS011;43657;52.698;6.314;2023-05-07T06:09:16;51.28;;;46.63;;
57828;SDS011;43657;52.698;6.314;2023-05-07T06:11:44;50.88;;;46.30;;
57828;SDS011;43657;52.698;6.314;2023-05-07T06:14:12;51.85;;;47.05;;
57828;SDS011;43657;52.698;6.314;2023-05-07T06:16:37;49.30;;;44.90;;
57828;SDS011;43657;52.698;6.314;2023-05-07T06:19:15;49.38;;;44.65;;
57828;SDS011;43657;52.698;6.314;2023-05-07T06:21:45;52.35;;;47.65;;
57828;SDS011;43657;52.698;6.314;2023-05-07T06:24:22;52.83;;;48.13;;
57828;SDS011;43657;52.698;6.314;2023-05-07T06:27:03;51.53;;;46.92;;
57828;SDS011;43657;52.698;6.314;2023-05-07T06:29:29;48.45;;;44.10;;
57828;SDS011;43657;52.698;6.314;2023-05-07T06:32:13;48.15;;;43.75;;
57828;SDS011;43657;52.698;6.314;2023-05-07T06:34:39;49.55;;;45.05;;
57828;SDS011;43657;52.698;6.314;2023-05-07T06:37:07;48.78;;;44.40;;
57828;SDS011;43657;52.698;6.314;2023-05-07T06:39:35;48.17;;;43.95;;
57828;SDS011;43657;52.698;6.314;2023-05-07T06:42:01;46.08;;;42.10;;
57828;SDS011;43657;52.698;6.314;2023-05-07T06:44:27;49.67;;;45.25;;
57828;SDS011;43657;52.698;6.314;2023-05-07T06:46:53;47.65;;;43.63;;
57828;SDS011;43657;52.698;6.314;2023-05-07T06:49:18;45.92;;;41.78;;
57828;SDS011;43657;52.698;6.314;2023-05-07T06:51:44;44.90;;;41.00;;
57828;SDS011;43657;52.698;6.314;2023-05-07T06:54:09;45.20;;;41.17;;
57828;SDS011;43657;52.698;6.314;2023-05-07T06:56:35;45.60;;;41.53;;
57828;SDS011;43657;52.698;6.314;2023-05-07T06:59:01;45.85;;;41.85;;
57828;SDS011;43657;52.698;6.314;2023-05-07T07:01:27;45.35;;;41.47;;
57828;SDS011;43657;52.698;6.314;2023-05-07T07:03:53;44.63;;;40.72;;
57828;SDS011;43657;52.698;6.314;2023-05-07T07:06:18;43.28;;;39.28;;
57828;SDS011;43657;52.698;6.314;2023-05-07T07:08:45;44.38;;;40.38;;
57828;SDS011;43657;52.698;6.314;2023-05-07T07:11:10;45.22;;;41.13;;
57828;SDS011;43657;52.698;6.314;2023-05-07T07:13:36;42.55;;;38.95;;
57828;SDS011;43657;52.698;6.314;2023-05-07T07:16:01;42.58;;;39.00;;
57828;SDS011;43657;52.698;6.314;2023-05-07T07:18:27;43.83;;;39.78;;
57828;SDS011;43657;52.698;6.314;2023-05-07T07:20:53;43.58;;;39.63;;
57828;SDS011;43657;52.698;6.314;2023-05-07T07:23:19;42.67;;;38.83;;
57828;SDS011;43657;52.698;6.314;2023-05-07T07:25:45;43.30;;;39.53;;
57828;SDS011;43657;52.698;6.314;2023-05-07T07:28:10;41.72;;;38.13;;
57828;SDS011;43657;52.698;6.314;2023-05-07T07:30:36;43.40;;;39.60;;
57828;SDS011;43657;52.698;6.314;2023-05-07T07:33:02;41.55;;;37.85;;
57828;SDS011;43657;52.698;6.314;2023-05-07T07:35:31;41.67;;;38.08;;
57828;SDS011;43657;52.698;6.314;2023-05-07T07:38:02;43.95;;;40.15;;
57828;SDS011;43657;52.698;6.314;2023-05-07T07:40:28;42.42;;;38.63;;
57828;SDS011;43657;52.698;6.314;2023-05-07T07:43:05;42.63;;;38.65;;
57828;SDS011;43657;52.698;6.314;2023-05-07T07:45:37;42.10;;;38.50;;
57828;SDS011;43657;52.698;6.314;2023-05-07T07:48:03;42.78;;;39.00;;
57828;SDS011;43657;52.698;6.314;2023-05-07T07:50:29;42.92;;;39.13;;
57828;SDS011;43657;52.698;6.314;2023-05-07T07:52:55;43.13;;;39.30;;
57828;SDS011;43657;52.698;6.314;2023-05-07T07:55:20;41.97;;;38.28;;
57828;SDS011;43657;52.698;6.314;2023-05-07T07:57:50;41.40;;;37.70;;
57828;SDS011;43657;52.698;6.314;2023-05-07T08:00:18;42.60;;;38.95;;
57828;SDS011;43657;52.698;6.314;2023-05-07T08:02:44;41.22;;;37.63;;
57828;SDS011;43657;52.698;6.314;2023-05-07T08:05:10;41.92;;;38.08;;
57828;SDS011;43657;52.698;6.314;2023-05-07T08:07:35;41.55;;;37.85;;
57828;SDS011;43657;52.698;6.314;2023-05-07T08:10:01;41.30;;;37.60;;
57828;SDS011;43657;52.698;6.314;2023-05-07T08:12:27;42.30;;;38.58;;
57828;SDS011;43657;52.698;6.314;2023-05-07T08:14:53;43.53;;;39.55;;
57828;SDS011;43657;52.698;6.314;2023-05-07T08:17:18;42.85;;;39.15;;
57828;SDS011;43657;52.698;6.314;2023-05-07T08:19:47;43.47;;;39.70;;
57828;SDS011;43657;52.698;6.314;2023-05-07T08:22:13;41.25;;;37.65;;
57828;SDS011;43657;52.698;6.314;2023-05-07T08:24:39;39.70;;;36.30;;
57828;SDS011;43657;52.698;6.314;2023-05-07T08:27:05;40.17;;;36.78;;
57828;SDS011;43657;52.698;6.314;2023-05-07T08:29:31;40.20;;;36.67;;
57828;SDS011;43657;52.698;6.314;2023-05-07T08:31:56;39.78;;;36.47;;
57828;SDS011;43657;52.698;6.314;2023-05-07T08:34:22;41.40;;;37.83;;
57828;SDS011;43657;52.698;6.314;2023-05-07T08:36:47;39.83;;;36.45;;
57828;SDS011;43657;52.698;6.314;2023-05-07T08:39:14;37.63;;;34.22;;
57828;SDS011;43657;52.698;6.314;2023-05-07T08:41:46;38.10;;;34.78;;
57828;SDS011;43657;52.698;6.314;2023-05-07T08:44:16;36.22;;;33.22;;
57828;SDS011;43657;52.698;6.314;2023-05-07T08:46:45;35.75;;;32.65;;
57828;SDS011;43657;52.698;6.314;2023-05-07T08:49:13;34.95;;;31.92;;
57828;SDS011;43657;52.698;6.314;2023-05-07T08:51:38;35.67;;;32.47;;
57828;SDS011;43657;52.698;6.314;2023-05-07T08:54:04;35.33;;;32.40;;
57828;SDS011;43657;52.698;6.314;2023-05-07T08:56:31;33.92;;;30.83;;
57828;SDS011;43657;52.698;6.314;2023-05-07T08:58:56;34.05;;;31.15;;
57828;SDS011;43657;52.698;6.314;2023-05-07T09:01:23;36.50;;;33.40;;
57828;SDS011;43657;52.698;6.314;2023-05-07T09:03:49;34.80;;;31.70;;
57828;SDS011;43657;52.698;6.314;2023-05-07T09:06:16;33.58;;;30.55;;
57828;SDS011;43657;52.698;6.314;2023-05-07T09:08:44;34.35;;;31.35;;
57828;SDS011;43657;52.698;6.314;2023-05-07T09:11:15;34.10;;;30.98;;
57828;SDS011;43657;52.698;6.314;2023-05-07T09:13:41;35.90;;;32.65;;
57828;SDS011;43657;52.698;6.314;2023-05-07T09:16:11;34.50;;;31.45;;
57828;SDS011;43657;52.698;6.314;2023-05-07T09:18:40;34.67;;;31.67;;
57828;SDS011;43657;52.698;6.314;2023-05-07T09:21:09;33.95;;;31.05;;
57828;SDS011;43657;52.698;6.314;2023-05-07T09:23:35;33.17;;;30.27;;
57828;SDS011;43657;52.698;6.314;2023-05-07T09:26:00;32.30;;;29.55;;
57828;SDS011;43657;52.698;6.314;2023-05-07T09:28:27;32.85;;;29.90;;
57828;SDS011;43657;52.698;6.314;2023-05-07T09:30:52;34.83;;;31.83;;
57828;SDS011;43657;52.698;6.314;2023-05-07T09:33:18;33.72;;;30.83;;
57828;SDS011;43657;52.698;6.314;2023-05-07T09:35:43;34.00;;;30.90;;
57828;SDS011;43657;52.698;6.314;2023-05-07T09:38:09;35.10;;;31.90;;
57828;SDS011;43657;52.698;6.314;2023-05-07T09:40:35;34.20;;;31.08;;
57828;SDS011;43657;52.698;6.314;2023-05-07T09:43:10;36.55;;;33.28;;
57828;SDS011;43657;52.698;6.314;2023-05-07T09:45:39;37.22;;;34.05;;
57828;SDS011;43657;52.698;6.314;2023-05-07T09:48:06;35.38;;;32.28;;
57828;SDS011;43657;52.698;6.314;2023-05-07T09:50:35;36.20;;;33.10;;
57828;SDS011;43657;52.698;6.314;2023-05-07T09:53:04;35.35;;;32.15;;
57828;SDS011;43657;52.698;6.314;2023-05-07T09:55:31;35.95;;;32.75;;
57828;SDS011;43657;52.698;6.314;2023-05-07T09:57:57;35.83;;;32.72;;
57828;SDS011;43657;52.698;6.314;2023-05-07T10:00:23;34.10;;;31.08;;
57828;SDS011;43657;52.698;6.314;2023-05-07T10:02:53;35.67;;;32.65;;
57828;SDS011;43657;52.698;6.314;2023-05-07T10:05:22;35.38;;;32.38;;
57828;SDS011;43657;52.698;6.314;2023-05-07T10:07:49;36.78;;;33.63;;
57828;SDS011;43657;52.698;6.314;2023-05-07T10:10:15;37.35;;;34.17;;
57828;SDS011;43657;52.698;6.314;2023-05-07T10:12:42;35.55;;;32.65;;
57828;SDS011;43657;52.698;6.314;2023-05-07T10:15:08;35.78;;;32.47;;
57828;SDS011;43657;52.698;6.314;2023-05-07T10:17:35;35.10;;;31.90;;
57828;SDS011;43657;52.698;6.314;2023-05-07T10:20:04;36.80;;;33.60;;
57828;SDS011;43657;52.698;6.314;2023-05-07T10:22:37;34.88;;;31.67;;
57828;SDS011;43657;52.698;6.314;2023-05-07T10:25:06;33.80;;;30.80;;
57828;SDS011;43657;52.698;6.314;2023-05-07T10:27:43;33.00;;;30.10;;
57828;SDS011;43657;52.698;6.314;2023-05-07T10:32:40;34.50;;;31.40;;
57828;SDS011;43657;52.698;6.314;2023-05-07T10:35:14;33.42;;;30.38;;
57828;SDS011;43657;52.698;6.314;2023-05-07T10:37:49;33.20;;;30.33;;
57828;SDS011;43657;52.698;6.314;2023-05-07T10:40:15;32.40;;;29.50;;
57828;SDS011;43657;52.698;6.314;2023-05-07T10:42:55;31.77;;;28.88;;
57828;SDS011;43657;52.698;6.314;2023-05-07T10:45:25;32.03;;;29.23;;
57828;SDS011;43657;52.698;6.314;2023-05-07T10:50:34;32.88;;;30.13;;
57828;SDS011;43657;52.698;6.314;2023-05-07T10:55:48;32.33;;;29.52;;
57828;SDS011;43657;52.698;6.314;2023-05-07T11:00:47;31.45;;;28.55;;
57828;SDS011;43657;52.698;6.314;2023-05-07T11:03:13;30.52;;;27.83;;
57828;SDS011;43657;52.698;6.314;2023-05-07T11:05:40;30.45;;;27.75;;
57828;SDS011;43657;52.698;6.314;2023-05-07T11:08:06;29.10;;;26.60;;
57828;SDS011;43657;52.698;6.314;2023-05-07T11:10:49;29.38;;;26.75;;
57828;SDS011;43657;52.698;6.314;2023-05-07T11:13:17;30.60;;;27.98;;
57828;SDS011;43657;52.698;6.314;2023-05-07T11:15:43;29.55;;;26.92;;
57828;SDS011;43657;52.698;6.314;2023-05-07T11:18:16;29.10;;;26.70;;
57828;SDS011;43657;52.698;6.314;2023-05-07T11:20:55;28.67;;;26.17;;
57828;SDS011;43657;52.698;6.314;2023-05-07T11:28:29;29.05;;;26.55;;
57828;SDS011;43657;52.698;6.314;2023-05-07T11:30:56;27.80;;;25.48;;
57828;SDS011;43657;52.698;6.314;2023-05-07T11:33:22;27.10;;;24.75;;
57828;SDS011;43657;52.698;6.314;2023-05-07T11:35:50;27.58;;;25.27;;
57828;SDS011;43657;52.698;6.314;2023-05-07T11:38:18;27.92;;;25.52;;
57828;SDS011;43657;52.698;6.314;2023-05-07T11:40:50;27.40;;;25.10;;
57828;SDS011;43657;52.698;6.314;2023-05-07T11:43:20;28.30;;;25.92;;
57828;SDS011;43657;52.698;6.314;2023-05-07T11:45:46;28.45;;;25.95;;
57828;SDS011;43657;52.698;6.314;2023-05-07T11:48:15;28.00;;;25.70;;
57828;SDS011;43657;52.698;6.314;2023-05-07T11:51:24;29.58;;;27.08;;
57828;SDS011;43657;52.698;6.314;2023-05-07T11:53:36;27.38;;;25.15;;
57828;SDS011;43657;52.698;6.314;2023-05-07T11:56:08;29.00;;;26.30;;
57828;SDS011;43657;52.698;6.314;2023-05-07T11:58:35;28.08;;;25.50;;
57828;SDS011;43657;52.698;6.314;2023-05-07T12:01:01;26.83;;;24.42;;
57828;SDS011;43657;52.698;6.314;2023-05-07T12:03:26;28.15;;;25.80;;
57828;SDS011;43657;52.698;6.314;2023-05-07T12:05:52;27.70;;;25.40;;
57828;SDS011;43657;52.698;6.314;2023-05-07T12:08:19;27.52;;;25.13;;
57828;SDS011;43657;52.698;6.314;2023-05-07T12:10:47;27.92;;;25.52;;
57828;SDS011;43657;52.698;6.314;2023-05-07T12:13:17;26.60;;;24.30;;
57828;SDS011;43657;52.698;6.314;2023-05-07T12:15:44;27.48;;;25.17;;
57828;SDS011;43657;52.698;6.314;2023-05-07T12:18:10;27.55;;;25.35;;
57828;SDS011;43657;52.698;6.314;2023-05-07T12:20:36;25.55;;;23.45;;
57828;SDS011;43657;52.698;6.314;2023-05-07T12:23:02;25.70;;;23.55;;
57828;SDS011;43657;52.698;6.314;2023-05-07T12:25:32;27.90;;;25.58;;
57828;SDS011;43657;52.698;6.314;2023-05-07T12:28:12;26.08;;;23.90;;
57828;SDS011;43657;52.698;6.314;2023-05-07T12:30:45;26.77;;;24.42;;
57828;SDS011;43657;52.698;6.314;2023-05-07T12:33:27;25.02;;;22.92;;
57828;SDS011;43657;52.698;6.314;2023-05-07T12:36:02;27.88;;;25.52;;
57828;SDS011;43657;52.698;6.314;2023-05-07T12:38:40;26.77;;;24.55;;
57828;SDS011;43657;52.698;6.314;2023-05-07T12:41:11;26.20;;;24.05;;
57828;SDS011;43657;52.698;6.314;2023-05-07T12:43:46;28.10;;;25.80;;
57828;SDS011;43657;52.698;6.314;2023-05-07T12:46:19;26.40;;;24.17;;
57828;SDS011;43657;52.698;6.314;2023-05-07T12:49:31;25.35;;;23.25;;
57828;SDS011;43657;52.698;6.314;2023-05-07T12:52:31;24.52;;;22.40;;
57828;SDS011;43657;52.698;6.314;2023-05-07T12:55:09;25.92;;;23.83;;
57828;SDS011;43657;52.698;6.314;2023-05-07T12:57:56;24.30;;;22.13;;
57828;SDS011;43657;52.698;6.314;2023-05-07T13:00:49;24.90;;;22.90;;
57828;SDS011;43657;52.698;6.314;2023-05-07T13:06:32;28.15;;;25.73;;
57828;SDS011;43657;52.698;6.314;2023-05-07T13:09:07;27.27;;;25.08;;
57828;SDS011;43657;52.698;6.314;2023-05-07T13:11:42;28.63;;;26.15;;
57828;SDS011;43657;52.698;6.314;2023-05-07T13:14:38;27.20;;;25.00;;
57828;SDS011;43657;52.698;6.314;2023-05-07T13:17:17;27.67;;;25.38;;
57828;SDS011;43657;52.698;6.314;2023-05-07T13:19:45;27.73;;;25.50;;
57828;SDS011;43657;52.698;6.314;2023-05-07T13:22:14;26.05;;;23.95;;
57828;SDS011;43657;52.698;6.314;2023-05-07T13:24:39;27.30;;;25.05;;
57828;SDS011;43657;52.698;6.314;2023-05-07T13:27:07;27.05;;;24.80;;
57828;SDS011;43657;52.698;6.314;2023-05-07T13:29:42;27.88;;;25.58;;
57828;SDS011;43657;52.698;6.314;2023-05-07T13:32:14;27.30;;;25.05;;
57828;SDS011;43657;52.698;6.314;2023-05-07T13:34:55;27.63;;;25.25;;
57828;SDS011;43657;52.698;6.314;2023-05-07T13:37:23;29.20;;;26.80;;
57828;SDS011;43657;52.698;6.314;2023-05-07T13:39:55;32.47;;;29.77;;
57828;SDS011;43657;52.698;6.314;2023-05-07T13:42:21;29.98;;;27.50;;
57828;SDS011;43657;52.698;6.314;2023-05-07T13:44:48;27.90;;;25.63;;
57828;SDS011;43657;52.698;6.314;2023-05-07T13:47:14;26.50;;;24.40;;
57828;SDS011;43657;52.698;6.314;2023-05-07T13:49:41;25.67;;;23.58;;
57828;SDS011;43657;52.698;6.314;2023-05-07T13:52:06;25.98;;;23.85;;
57828;SDS011;43657;52.698;6.314;2023-05-07T13:54:32;27.83;;;25.63;;
57828;SDS011;43657;52.698;6.314;2023-05-07T13:56:57;26.98;;;24.67;;
57828;SDS011;43657;52.698;6.314;2023-05-07T13:59:23;26.02;;;23.92;;
57828;SDS011;43657;52.698;6.314;2023-05-07T14:01:48;27.83;;;25.42;;
57828;SDS011;43657;52.698;6.314;2023-05-07T14:04:14;25.80;;;23.52;;
57828;SDS011;43657;52.698;6.314;2023-05-07T14:06:40;26.42;;;24.23;;
57828;SDS011;43657;52.698;6.314;2023-05-07T14:09:05;25.98;;;23.77;;
57828;SDS011;43657;52.698;6.314;2023-05-07T14:11:31;24.63;;;22.63;;
57828;SDS011;43657;52.698;6.314;2023-05-07T14:13:56;25.88;;;23.77;;
57828;SDS011;43657;52.698;6.314;2023-05-07T14:16:23;27.48;;;25.20;;
57828;SDS011;43657;52.698;6.314;2023-05-07T14:18:48;26.27;;;23.98;;
57828;SDS011;43657;52.698;6.314;2023-05-07T14:21:14;24.90;;;22.80;;
57828;SDS011;43657;52.698;6.314;2023-05-07T14:23:39;25.65;;;23.63;;
57828;SDS011;43657;52.698;6.314;2023-05-07T14:26:05;25.90;;;23.60;;
57828;SDS011;43657;52.698;6.314;2023-05-07T14:28:30;26.02;;;23.92;;
57828;SDS011;43657;52.698;6.314;2023-05-07T14:30:56;24.58;;;22.52;;
57828;SDS011;43657;52.698;6.314;2023-05-07T14:33:22;23.85;;;21.95;;
57828;SDS011;43657;52.698;6.314;2023-05-07T14:35:47;23.30;;;21.35;;
57828;SDS011;43657;52.698;6.314;2023-05-07T14:38:14;24.73;;;22.73;;
57828;SDS011;43657;52.698;6.314;2023-05-07T14:40:40;25.17;;;23.17;;
57828;SDS011;43657;52.698;6.314;2023-05-07T14:43:06;25.23;;;23.13;;
57828;SDS011;43657;52.698;6.314;2023-05-07T14:45:31;25.67;;;23.67;;